Bombshell prediction about how investors will perform under Biden administration
In this brand new, exclusive interview…

O’Reilly was blown away.
Show me now

RCG Insider Trading (RENN Fund)

Insider Ownership Percentage: N/A
Insider Buying (Last 12 Months): $74,940.17
Insider Selling (Last 12 Months): $0.00

RENN Fund Insider Trading History Chart

RENN Fund Share Price & Price History

$2.37
▲ +0.07 (3.04%)
As of 02/24/2021 01:00 AM ET
Days: 30 | 90 | 365
The DOW is Dead - This Could be Your Last Chance to “Crash Proof”
I've been preparing for this moment for five years.

The fact is, I'd hoped this day would never come...
Click here to see why

RENN Fund Insider Trading History

Transaction DateInsider NameTitleBuy/SellNumber of SharesAverage Share PriceTotal TransactionShares Held After TransactionDetails
2/22/2021Murray StahlCEOBuy675$2.26$1,525.50  
2/19/2021Murray StahlCEOBuy675$2.25$1,518.75  
2/17/2021Murray StahlCEOBuy675$2.32$1,566.00  
2/10/2021Murray StahlCEOBuy675$2.20$1,485.00  
2/8/2021Murray StahlCEOBuy675$2.10$1,417.50  
2/5/2021Murray StahlCEOBuy675$2.02$1,363.50  
2/3/2021Murray StahlCEOBuy675$1.92$1,296.00  
2/1/2021Murray StahlCEOBuy675$1.86$1,255.50  
1/29/2021Murray StahlCEOBuy675$1.92$1,296.00  
1/27/2021Murray StahlCEOBuy675$2.02$1,363.50  
1/25/2021Murray StahlCEOBuy675$2.12$1,431.00  
1/21/2021Murray StahlCEOBuy675$1.89$1,275.75  
1/19/2021Murray StahlCEOBuy675$1.94$1,309.50  
1/13/2021Murray StahlCEOBuy675$1.80$1,215.00  
1/11/2021Murray StahlCEOBuy675$1.74$1,174.50  
1/8/2021Murray StahlCEOBuy675$1.97$1,329.75  
1/6/2021Murray StahlCEOBuy675$1.77$1,194.75  
12/30/2020Murray StahlCEOBuy28$1.64$45.92  
12/23/2020Murray StahlCEOBuy675$1.67$1,127.25  
12/21/2020Murray StahlCEOBuy675$1.63$1,100.25  
12/18/2020Murray StahlCEOBuy50$1.59$79.50  
12/16/2020Murray StahlCEOBuy675$1.68$1,134.00  
12/14/2020Murray StahlCEOBuy675$1.69$1,140.75  
12/10/2020Murray StahlCEOBuy675$1.67$1,127.25  
12/8/2020Murray StahlCEOBuy675$1.68$1,134.00  
12/4/2020Murray StahlCEOBuy675$1.61$1,086.75  
12/2/2020Murray StahlCEOBuy675$1.57$1,059.75  
11/30/2020Murray StahlCEOBuy675$1.58$1,066.50  
11/27/2020Murray StahlCEOBuy675$1.57$1,059.75  
11/24/2020Murray StahlCEOBuy675$1.58$1,066.50  
11/20/2020Murray StahlCEOBuy675$1.56$1,053.00  
11/18/2020Murray StahlCEOBuy675$1.56$1,053.00  
11/16/2020Murray StahlCEOBuy675$1.53$1,032.75  
11/13/2020Murray StahlCEOBuy675$1.47$992.25  
11/11/2020Murray StahlCEOBuy675$1.47$992.25  
11/9/2020Murray StahlCEOBuy675$1.44$972.00  
11/2/2020Murray StahlCEOBuy675$1.39$938.25  
10/30/2020Murray StahlCEOBuy675$1.36$918.00  
10/28/2020Murray StahlCEOBuy675$1.36$918.00  
10/26/2020Murray StahlCEOBuy675$1.41$951.75  
10/23/2020Murray StahlCEOBuy675$1.43$965.25  
10/21/2020Murray StahlCEOBuy675$1.42$958.50  
10/19/2020Murray StahlCEOBuy675$1.39$938.25  
10/16/2020Murray StahlCEOBuy675$1.37$924.75  
10/14/2020Murray StahlCEOBuy675$1.36$918.00  
10/12/2020Murray StahlCEOBuy675$1.39$938.25  
10/9/2020Murray StahlCEOBuy675$1.35$911.25  
10/7/2020Murray StahlCEOBuy675$1.33$897.75  
10/5/2020Murray StahlCEOBuy675$1.33$897.75  
10/2/2020Murray StahlCEOBuy675$1.31$884.25  
9/30/2020Murray StahlCEOBuy675$1.31$884.25  
9/28/2020Murray StahlCEOBuy675$1.31$884.25  
9/25/2020Murray StahlCEOBuy675$1.30$877.50  
9/23/2020Murray StahlCEOBuy675$1.31$884.25  
9/21/2020Murray StahlCEOBuy675$1.31$884.25  
9/18/2020Murray StahlCEOBuy675$1.33$897.75  
9/16/2020Murray StahlCEOBuy675$1.30$877.50  
9/14/2020Murray StahlCEOBuy675$1.29$870.75  
9/10/2020Murray StahlCEOBuy675$1.29$870.75  
9/8/2020Murray StahlCEOBuy675$1.27$857.25  
9/3/2020Murray StahlCEOBuy675$1.30$877.50  
8/31/2020Murray StahlCEOBuy675$1.30$877.50  
8/26/2020Murray StahlCEOBuy675$1.34$904.50  
8/24/2020Murray StahlCEOBuy675$1.32$891.00  
8/20/2020Murray StahlCEOBuy675$1.37$924.75  
8/18/2020Murray StahlCEOBuy675$1.35$911.25  
8/13/2020Murray StahlCEOBuy675$1.33$897.75  
8/10/2020Murray StahlCEOBuy675$1.36$918.00  
8/5/2020Murray StahlCEOBuy675$1.43$965.25  
7/31/2020Murray StahlCEOBuy675$1.31$884.25  
7/29/2020Murray StahlCEOBuy675$1.33$897.75  
7/27/2020Murray StahlCEOBuy100$1.31$131.00  
7/24/2020Murray StahlCEOBuy100$1.29$129.00  
7/22/2020Murray StahlCEOBuy100$1.29$129.00  
7/20/2020Murray StahlCEOBuy100$1.30$130.00  
7/17/2020Murray StahlCEOBuy100$1.31$131.00  
7/15/2020Murray StahlCEOBuy100$1.29$129.00  
7/13/2020Murray StahlCEOBuy225$1.26$283.50  
7/10/2020Murray StahlCEOBuy100$1.28$128.00  
7/8/2020Murray StahlCEOBuy225$1.29$290.25  
7/6/2020Murray StahlCEOBuy225$1.30$292.50  
7/1/2020Murray StahlCEOBuy100$1.28$128.00  
11/6/2019Murray StahlCEOBuy500$1.59$795.00  
4/2/2019Alice C BrennanDirectorBuy500$1.61$805.00500  
3/19/2019Herbert M ChainDirectorBuy500$1.79$895.00500  
See Full Table

SEC Filings (Institutional Ownership Changes) for RENN Fund (NYSEAMERICAN:RCG)

Institutional Buying and Selling by Quarter

RENN Fund Institutional Trading History

Reporting DateHedge FundShares HeldMarket Value% of PortfolioQuarterly Change in SharesOwnership in Company
2/11/2021Moors & Cabot Inc.49,905$86K0.0%+16.3%0.000%
5/12/2020Moors & Cabot Inc.42,905$45K0.0%N/A0.000%
2/11/2020Landscape Capital Management L.L.C.81,279$0.13M0.0%-14.2%0.000%
6/16/2019Pecaut & CO.78,065$0.13M0.1%+31.4%0.000%
5/8/2019Pecaut & CO.78,065$0.20M0.1%+31.4%0.000%
5/3/2019Chase Investment Counsel Corp186,335$0.32M0.2%+19.6%0.000%
11/13/2018Blair William & Co. IL316,918$0.57M0.0%+36.1%0.000%
5/15/2018Blair William & Co. IL83,148$0.11M0.0%+143.8%1.864%
Data available starting January 2016

See Full Table
RENN Fund logo
RENN Fund, Inc. is a closed ended equity mutual fund launched by RENN Capital Group, Inc. The fund is co-managed by Horizon Kinetics Asset Management LLC. It invests in the public equity markets of the United States. The fund seeks to invest in stocks of companies operating across diversified sectors. It seeks to invest in stocks of small-cap and mid-cap companies. The fund employs a fundamental analysis with a bottom-up stock picking approach to create its portfolio. It was formerly known as RENN Global Entrepreneurs Fund, Inc. RENN Fund, Inc. was formed on January 20, 1994 and is domiciled in the United States.
Read More

Today's Range

Now: $2.37
$2.29
$2.37

50 Day Range

MA: N/A

52 Week Range

Now: $2.37
$0.90
$2.38

Volume

16,691 shs

Average Volume

31,155 shs

Market Capitalization

N/A

P/E Ratio

N/A

Dividend Yield

N/A

Beta

N/A

Who are the company insiders with the largest holdings of RENN Fund?

RENN Fund's top insider investors include:
  1. Alice C Brennan (Director)
  2. Herbert M Chain (Director)
  3. Murray Stahl (CEO)

Who are the major institutional investors of RENN Fund?

RENN Fund's top institutional shareholders include:
  1. Moors & Cabot Inc. — 0.00%

Which major investors are buying RENN Fund stock?

During the last quarter, RCG stock was purchased by institutional investors including:
  1. Moors & Cabot Inc.
Within the previous year, these company insiders have bought RENN Fund stock:
  1. Alice C Brennan (Director)
  2. Herbert M Chain (Director)
  3. Murray Stahl (CEO)
Warren Buffett has been on a selling spree
Through Berkshire Hathaway…Warren Buffett recently dumped $800 million of Apple stock…

And bought this instead!

He’s now moved $3.8 BILLION in a tiny niche of the tech sector billionaires are flocking to…
Click to see what Buffett knows